Time;durP1;ratioP1;P1;durP2;ratioP2;P2;SDS_P1;SDS_P2;PMS_P1;PMS_P2;Temp;Humidity;BMP_temperature;BMP_pressure;BME280_temperature;BME280_humidity;BME280_pressure;Samples;Min_cycle;Max_cycle;Signal;HPM_P1;HPM_P2
2023/12/31 00:00:34;;;;;;;38.33;27.48;;;179.30;2252.80;;;;;;5073331;28;20040;-62
2023/12/31 00:03:00;;;;;;;58.65;39.65;;;179.30;2252.80;;;;;;5070512;28;20112;-61
2023/12/31 00:05:26;;;;;;;44.75;32.13;;;179.40;2252.80;;;;;;5071870;28;20028;-61
2023/12/31 00:07:52;;;;;;;45.28;29.90;;;179.40;2252.80;;;;;;5071934;28;20475;-61
2023/12/31 00:10:18;;;;;;;54.47;35.92;;;179.40;2252.80;;;;;;5069055;28;20032;-61
2023/12/31 00:12:44;;;;;;;49.58;30.40;;;179.30;2252.80;;;;;;5069083;28;20028;-61
2023/12/31 00:15:10;;;;;;;23.70;15.25;;;179.20;2252.80;;;;;;5069349;28;20024;-61
2023/12/31 00:17:36;;;;;;;37.28;23.85;;;179.30;2252.80;;;;;;5069360;28;20020;-63
2023/12/31 00:20:03;;;;;;;45.25;30.27;;;179.30;2252.80;;;;;;5069684;28;20481;-61
2023/12/31 00:22:29;;;;;;;125.78;70.57;;;179.30;2252.80;;;;;;5069559;28;20709;-62
2023/12/31 00:24:55;;;;;;;92.57;50.92;;;179.30;2252.80;;;;;;5069312;28;20032;-62
2023/12/31 00:27:21;;;;;;;60.30;37.22;;;179.20;2252.80;;;;;;5069435;28;20035;-61
2023/12/31 00:29:48;;;;;;;38.67;24.25;;;179.20;2252.80;;;;;;5069265;28;20024;-61
2023/12/31 00:32:15;;;;;;;24.98;18.00;;;179.20;2252.80;;;;;;5069618;28;20075;-61
2023/12/31 00:34:41;;;;;;;28.23;18.02;;;179.30;2252.80;;;;;;5069071;28;20025;-63
2023/12/31 00:37:07;;;;;;;375.83;167.32;;;179.40;2252.80;;;;;;5069202;28;20099;-61
2023/12/31 00:39:33;;;;;;;343.92;142.20;;;179.40;2252.80;;;;;;5069050;28;20045;-65
2023/12/31 00:41:59;;;;;;;110.80;53.10;;;179.30;2252.80;;;;;;5073480;28;20132;-65
2023/12/31 00:44:24;;;;;;;358.08;153.63;;;179.20;2252.80;;;;;;5073302;28;20099;-61
2023/12/31 00:46:50;;;;;;;316.77;122.68;;;154.50;2252.80;;;;;;5073067;28;20029;-66
2023/12/31 00:49:17;;;;;;;199.75;80.03;;;154.50;2252.80;;;;;;5072900;28;20017;-62
2023/12/31 00:51:43;;;;;;;181.60;65.95;;;154.50;2252.80;;;;;;5073103;28;20024;-61
2023/12/31 00:54:09;;;;;;;220.57;89.72;;;154.50;2252.80;;;;;;5073159;28;20075;-61
2023/12/31 00:56:35;;;;;;;194.18;83.43;;;154.50;2252.80;;;;;;5073093;28;20020;-61
2023/12/31 00:59:04;;;;;;;372.90;165.00;;;179.30;2252.80;;;;;;5073230;28;20039;-61
2023/12/31 01:01:29;;;;;;;206.45;100.65;;;179.20;2252.80;;;;;;5072365;28;20039;-61
2023/12/31 01:03:55;;;;;;;180.05;84.03;;;179.20;2252.80;;;;;;5073130;28;20104;-62
2023/12/31 01:06:21;;;;;;;39.30;20.00;;;179.20;2252.80;;;;;;5072772;28;20055;-62
2023/12/31 01:08:47;;;;;;;39.30;21.25;;;179.20;2252.80;;;;;;5072558;28;20466;-61
2023/12/31 01:11:13;;;;;;;37.60;18.65;;;154.50;2252.80;;;;;;5072629;28;20490;-60
2023/12/31 01:13:39;;;;;;;25.20;14.65;;;154.40;2252.80;;;;;;5072874;28;20367;-61
2023/12/31 01:16:04;;;;;;;76.22;40.13;;;154.50;2252.80;;;;;;5072648;28;20039;-60
2023/12/31 01:18:31;;;;;;;40.28;22.27;;;154.30;2252.80;;;;;;5072737;28;20471;-61
2023/12/31 01:20:57;;;;;;;101.53;51.25;;;154.20;2252.80;;;;;;5072210;28;20035;-61
2023/12/31 01:23:23;;;;;;;85.35;44.75;;;154.20;2252.80;;;;;;5072568;28;20021;-62
2023/12/31 01:25:48;;;;;;;73.93;38.80;;;154.20;2252.80;;;;;;5072072;28;20051;-61
2023/12/31 01:28:14;;;;;;;27.10;15.35;;;154.30;2252.80;;;;;;5072457;28;20485;-61
2023/12/31 01:30:40;;;;;;;56.70;31.30;;;154.40;2252.80;;;;;;5072513;28;20021;-61
2023/12/31 01:33:06;;;;;;;57.97;31.60;;;154.30;2252.80;;;;;;5072650;28;20386;-61
2023/12/31 01:35:32;;;;;;;21.30;14.20;;;154.40;2252.80;;;;;;5072386;28;20020;-67
2023/12/31 01:37:57;;;;;;;62.67;34.50;;;154.30;2252.80;;;;;;5071884;28;20382;-62
2023/12/31 01:40:23;;;;;;;135.95;70.65;;;154.20;2252.80;;;;;;5071855;28;20044;-62
2023/12/31 01:42:49;;;;;;;68.57;35.28;;;154.20;2252.80;;;;;;5072174;28;20031;-62
2023/12/31 01:45:15;;;;;;;95.57;51.13;;;154.10;2252.80;;;;;;5071895;28;20083;-65
2023/12/31 01:47:41;;;;;;;37.75;22.05;;;154.00;2252.80;;;;;;5072338;28;20028;-61
2023/12/31 01:50:07;;;;;;;76.03;43.60;;;154.00;2252.80;;;;;;5071900;28;20086;-61
2023/12/31 01:52:34;;;;;;;60.45;35.58;;;154.10;2252.80;;;;;;5070855;28;20017;-70
2023/12/31 01:55:05;;;;;;;37.42;23.10;;;154.10;2252.80;;;;;;5071667;28;20031;-62
2023/12/31 01:57:33;;;;;;;20.45;14.48;;;154.20;2252.80;;;;;;5072032;28;20024;-62
2023/12/31 02:00:03;;;;;;;18.15;9.82;;;154.30;2252.80;;;;;;5071810;28;20107;-62
2023/12/31 02:02:29;;;;;;;22.25;16.48;;;154.20;2252.80;;;;;;5072136;28;20029;-62
2023/12/31 02:04:56;;;;;;;34.25;23.05;;;154.10;2252.80;;;;;;5071620;28;20543;-62
2023/12/31 02:07:22;;;;;;;28.90;25.75;;;154.10;2252.80;;;;;;5071736;28;20032;-61
2023/12/31 02:09:49;;;;;;;22.30;14.65;;;154.10;2252.80;;;;;;5071572;28;20434;-62
2023/12/31 02:12:15;;;;;;;16.90;10.40;;;154.00;2252.80;;;;;;5071501;28;20039;-61
2023/12/31 02:14:41;;;;;;;20.20;14.65;;;154.00;2252.80;;;;;;5071556;28;20017;-61
2023/12/31 02:17:07;;;;;;;22.75;13.98;;;154.00;2252.80;;;;;;5071533;28;20036;-61
2023/12/31 02:19:32;;;;;;;24.70;12.98;;;154.00;2252.80;;;;;;5071446;28;20024;-69
2023/12/31 02:21:59;;;;;;;28.38;15.65;;;154.00;2252.80;;;;;;5071851;28;20478;-62
2023/12/31 02:24:41;;;;;;;36.78;22.98;;;154.00;2252.80;;;;;;5071289;28;20462;-62
2023/12/31 02:27:07;;;;;;;65.23;39.97;;;154.10;2252.80;;;;;;5071392;28;20036;-62
2023/12/31 02:29:33;;;;;;;18.52;12.15;;;154.00;2252.80;;;;;;5071532;28;20076;-63
2023/12/31 02:31:58;;;;;;;14.25;9.55;;;154.10;2252.80;;;;;;5071552;28;20086;-62
2023/12/31 02:34:24;;;;;;;18.48;10.27;;;154.10;2252.80;;;;;;5071169;28;20104;-62
2023/12/31 02:36:50;;;;;;;28.00;18.27;;;154.10;2252.80;;;;;;5071183;28;20352;-62
2023/12/31 02:39:15;;;;;;;13.75;9.20;;;154.00;2252.80;;;;;;5070791;28;20041;-70
2023/12/31 02:41:41;;;;;;;40.55;26.67;;;154.00;2252.80;;;;;;5070970;28;20036;-62
2023/12/31 02:44:07;;;;;;;34.90;18.75;;;153.90;2252.80;;;;;;5070756;28;20021;-62
2023/12/31 02:46:33;;;;;;;20.08;14.50;;;153.90;2252.80;;;;;;5071462;28;20103;-62
2023/12/31 02:48:58;;;;;;;46.38;28.60;;;153.80;2252.80;;;;;;5071189;28;20025;-62
2023/12/31 02:51:24;;;;;;;22.23;15.00;;;153.90;2252.80;;;;;;5070614;28;20032;-62
2023/12/31 02:53:50;;;;;;;39.67;21.35;;;154.00;2252.80;;;;;;5070525;28;20020;-62
2023/12/31 02:56:15;;;;;;;42.38;23.88;;;154.00;2252.80;;;;;;5070688;28;20021;-62
2023/12/31 02:58:41;;;;;;;16.10;11.55;;;154.00;2252.80;;;;;;5070692;28;20370;-62
2023/12/31 03:01:07;;;;;;;12.50;9.82;;;154.00;2252.80;;;;;;5070956;28;20117;-62
2023/12/31 03:03:33;;;;;;;14.95;10.05;;;154.10;2252.80;;;;;;5070420;28;20492;-62
2023/12/31 03:05:58;;;;;;;14.32;9.57;;;154.10;2252.80;;;;;;5070349;28;20135;-62
2023/12/31 03:08:24;;;;;;;22.83;13.10;;;154.10;2252.80;;;;;;5070201;28;20024;-62
2023/12/31 03:10:50;;;;;;;33.85;20.67;;;154.10;2252.80;;;;;;5070690;28;20044;-62
2023/12/31 03:13:16;;;;;;;39.72;23.00;;;154.10;2252.80;;;;;;5070143;28;20463;-62
2023/12/31 03:15:41;;;;;;;66.28;41.63;;;154.10;2252.80;;;;;;5070416;28;20035;-62
2023/12/31 03:18:07;;;;;;;57.80;37.17;;;154.10;2252.80;;;;;;5070041;28;20032;-63
2023/12/31 03:20:33;;;;;;;49.60;32.35;;;154.20;2252.80;;;;;;5070215;28;20028;-69
2023/12/31 03:22:58;;;;;;;42.90;31.10;;;154.30;2252.80;;;;;;5070427;28;20104;-62
2023/12/31 03:25:24;;;;;;;47.72;37.17;;;154.40;2252.80;;;;;;5070036;28;20078;-61
2023/12/31 03:27:50;;;;;;;52.42;33.97;;;154.40;2252.80;;;;;;5070192;28;20025;-62
2023/12/31 03:30:16;;;;;;;52.20;32.95;;;154.50;2252.80;;;;;;5070157;28;20029;-62
2023/12/31 03:32:42;;;;;;;97.65;54.65;;;154.40;2252.80;;;;;;5070200;28;20427;-61
2023/12/31 03:35:08;;;;;;;55.10;32.25;;;154.10;2252.80;;;;;;5070094;28;20017;-62
2023/12/31 03:37:34;;;;;;;45.92;32.63;;;154.10;2252.80;;;;;;5069859;28;20028;-62
2023/12/31 03:40:00;;;;;;;51.30;30.15;;;153.90;2252.80;;;;;;5069683;28;20052;-61
2023/12/31 03:42:26;;;;;;;105.10;64.90;;;153.90;2252.80;;;;;;5069778;28;20021;-62
2023/12/31 03:44:51;;;;;;;48.30;33.97;;;153.90;2252.80;;;;;;5069923;28;20020;-61
2023/12/31 03:47:17;;;;;;;64.95;45.30;;;153.80;2252.80;;;;;;5069649;28;20028;-61
2023/12/31 03:49:43;;;;;;;93.38;57.97;;;153.70;2252.80;;;;;;5069807;28;20020;-62
2023/12/31 03:52:10;;;;;;;56.67;35.70;;;153.70;2252.80;;;;;;5069600;28;20016;-61
2023/12/31 03:54:40;;;;;;;51.75;30.23;;;128.90;2252.80;;;;;;5069470;28;20033;-62
2023/12/31 03:57:06;;;;;;;43.20;28.60;;;128.90;2252.80;;;;;;5069365;28;20520;-61
2023/12/31 03:59:32;;;;;;;43.40;28.30;;;128.90;2252.80;;;;;;5069542;28;20037;-67
2023/12/31 04:01:58;;;;;;;39.78;26.02;;;128.80;2252.80;;;;;;5069401;28;20060;-60
2023/12/31 04:04:29;;;;;;;46.70;30.70;;;128.80;2252.80;;;;;;5069752;28;20569;-65
2023/12/31 04:06:54;;;;;;;31.05;19.98;;;128.90;2252.80;;;;;;5069252;28;20035;-62
2023/12/31 04:09:20;;;;;;;32.42;21.27;;;128.80;2252.80;;;;;;5069470;28;20040;-61
2023/12/31 04:11:46;;;;;;;21.42;12.45;;;128.90;2252.80;;;;;;5069038;28;20351;-62
2023/12/31 04:14:12;;;;;;;19.15;12.43;;;128.90;2252.80;;;;;;5069202;28;20078;-61
2023/12/31 04:16:37;;;;;;;14.90;9.73;;;128.90;2252.80;;;;;;5068613;28;20013;-61
2023/12/31 04:19:03;;;;;;;15.55;10.13;;;128.80;2252.80;;;;;;5069368;28;20036;-69
2023/12/31 04:21:29;;;;;;;18.25;12.95;;;128.80;2252.80;;;;;;5083473;28;20115;-70
2023/12/31 04:23:55;;;;;;;34.83;22.42;;;128.80;2252.80;;;;;;5083555;28;20024;-67
2023/12/31 04:26:20;;;;;;;35.92;23.33;;;128.60;2252.80;;;;;;5069429;28;20085;-71
2023/12/31 04:28:46;;;;;;;19.25;11.55;;;128.70;2252.80;;;;;;5073010;28;20426;-61
2023/12/31 04:31:12;;;;;;;16.25;10.75;;;128.70;2252.80;;;;;;5087053;28;20101;-63
2023/12/31 04:33:37;;;;;;;15.13;9.85;;;128.60;2252.80;;;;;;5088753;28;20052;-61
2023/12/31 04:36:04;;;;;;;21.42;13.57;;;128.60;2252.80;;;;;;5083165;28;20111;-70
2023/12/31 04:38:31;;;;;;;21.52;12.25;;;128.40;2252.80;;;;;;5069115;28;20044;-61
2023/12/31 04:40:57;;;;;;;20.77;13.43;;;128.30;2252.80;;;;;;5069013;28;20058;-61
2023/12/31 04:43:23;;;;;;;24.00;12.43;;;128.30;2252.80;;;;;;5069446;28;20463;-61
2023/12/31 04:45:48;;;;;;;19.38;12.48;;;128.30;2252.80;;;;;;5068993;28;20032;-62
2023/12/31 04:48:14;;;;;;;22.02;12.85;;;128.30;2252.80;;;;;;5069141;28;20016;-62
2023/12/31 04:50:40;;;;;;;17.90;11.93;;;128.30;2252.80;;;;;;5069168;28;20471;-61
2023/12/31 04:53:05;;;;;;;20.70;13.35;;;128.30;2252.80;;;;;;5069136;28;20020;-61
2023/12/31 04:55:33;;;;;;;24.50;14.75;;;128.40;2252.80;;;;;;5068904;28;20034;-62
2023/12/31 04:57:59;;;;;;;26.90;15.27;;;128.40;2252.80;;;;;;5069441;28;20083;-69
2023/12/31 05:00:25;;;;;;;26.17;13.25;;;128.80;2252.80;;;;;;5068983;28;20031;-61
2023/12/31 05:02:50;;;;;;;20.13;13.05;;;128.50;2252.80;;;;;;5069209;28;20032;-61
2023/12/31 05:05:16;;;;;;;15.85;9.82;;;128.50;2252.80;;;;;;5068517;28;20383;-61
2023/12/31 05:07:42;;;;;;;13.63;8.32;;;128.40;2252.80;;;;;;5069052;28;20094;-61
2023/12/31 05:10:08;;;;;;;19.65;9.55;;;128.50;2252.80;;;;;;5068582;28;20064;-61
2023/12/31 05:12:34;;;;;;;14.25;9.35;;;128.40;2252.80;;;;;;5068851;28;20486;-62
2023/12/31 05:15:00;;;;;;;15.73;9.80;;;128.40;2252.80;;;;;;5069172;28;20111;-60
2023/12/31 05:17:25;;;;;;;13.63;7.18;;;128.50;2252.80;;;;;;5068813;28;20024;-68
2023/12/31 05:19:52;;;;;;;13.00;7.88;;;128.60;2252.80;;;;;;5068655;28;20467;-61
2023/12/31 05:22:18;;;;;;;15.85;9.85;;;128.60;2252.80;;;;;;5068726;28;20432;-61
2023/12/31 05:24:44;;;;;;;17.60;9.98;;;128.50;2252.80;;;;;;5068555;28;20040;-62
2023/12/31 05:27:10;;;;;;;13.48;9.30;;;128.40;2252.80;;;;;;5071142;28;20467;-62
2023/12/31 05:29:35;;;;;;;13.85;9.25;;;128.30;2252.80;;;;;;5071875;28;20482;-61
2023/12/31 05:32:01;;;;;;;15.60;9.15;;;128.20;2252.80;;;;;;5072590;28;20036;-61
2023/12/31 05:34:27;;;;;;;13.07;9.52;;;128.20;2252.80;;;;;;5072014;28;20012;-61
2023/12/31 05:36:52;;;;;;;12.90;8.45;;;128.30;2252.80;;;;;;5072212;28;20039;-66
2023/12/31 05:39:18;;;;;;;22.15;10.93;;;128.10;2252.80;;;;;;5071931;28;20055;-60
2023/12/31 05:41:44;;;;;;;13.43;8.10;;;128.00;2252.80;;;;;;5072096;28;20387;-62
2023/12/31 05:44:12;;;;;;;12.40;8.65;;;128.00;2252.80;;;;;;5054344;28;20401;-60
2023/12/31 05:46:37;;;;;;;16.63;10.20;;;103.30;2227.20;;;;;;5076246;28;20052;-60
2023/12/31 05:49:03;;;;;;;30.67;17.77;;;103.30;2227.20;;;;;;5072144;28;20025;-69
2023/12/31 05:51:29;;;;;;;40.70;28.02;;;103.30;2227.20;;;;;;5072087;28;20017;-61
2023/12/31 05:53:55;;;;;;;38.65;27.98;;;128.10;2252.80;;;;;;5072363;28;20024;-61
2023/12/31 05:56:20;;;;;;;16.80;10.98;;;128.00;2252.80;;;;;;5071977;28;20037;-61
2023/12/31 05:58:46;;;;;;;17.55;10.95;;;128.10;2252.80;;;;;;5071685;28;20363;-61
2023/12/31 06:01:12;;;;;;;16.92;10.93;;;128.00;2252.80;;;;;;5072266;28;20036;-61
2023/12/31 06:03:38;;;;;;;17.33;11.90;;;103.30;2227.20;;;;;;5071724;28;20033;-61
2023/12/31 06:06:04;;;;;;;19.90;12.75;;;103.30;2227.20;;;;;;5071799;28;20469;-61
2023/12/31 06:08:30;;;;;;;22.23;15.98;;;128.00;2252.80;;;;;;5071853;28;20081;-61
2023/12/31 06:10:56;;;;;;;17.42;10.18;;;103.30;2227.20;;;;;;5071543;28;20106;-61
2023/12/31 06:13:21;;;;;;;16.98;9.07;;;103.20;2227.20;;;;;;5071745;28;20497;-61
2023/12/31 06:15:47;;;;;;;14.75;11.57;;;103.20;2227.20;;;;;;5071580;28;20096;-61
2023/12/31 06:18:13;;;;;;;10.73;7.30;;;103.30;2227.20;;;;;;5071979;28;20504;-62
2023/12/31 06:20:39;;;;;;;12.73;8.18;;;128.00;2252.80;;;;;;5070880;28;20589;-60
2023/12/31 06:23:04;;;;;;;13.50;9.05;;;128.10;2252.80;;;;;;5071430;28;20017;-61
2023/12/31 06:25:30;;;;;;;12.40;9.15;;;128.20;2252.80;;;;;;5071207;28;20190;-61
2023/12/31 06:27:57;;;;;;;13.13;8.95;;;128.20;2252.80;;;;;;5071096;28;20012;-61
2023/12/31 06:30:23;;;;;;;17.60;11.43;;;128.20;2252.80;;;;;;5071414;28;20063;-60
2023/12/31 06:32:49;;;;;;;11.23;8.18;;;128.10;2252.80;;;;;;5071262;28;20058;-61
2023/12/31 06:35:15;;;;;;;21.25;12.40;;;128.30;2252.80;;;;;;5070949;28;20283;-67
2023/12/31 06:37:41;;;;;;;13.45;8.80;;;128.40;2252.80;;;;;;5070322;28;20539;-61
2023/12/31 06:40:08;;;;;;;43.13;27.20;;;128.50;2252.80;;;;;;5070772;28;20049;-61
2023/12/31 06:42:34;;;;;;;46.28;33.03;;;128.50;2252.80;;;;;;5070802;28;20029;-61
2023/12/31 06:45:00;;;;;;;38.90;25.65;;;128.60;2252.80;;;;;;5071425;28;20031;-60
2023/12/31 06:47:25;;;;;;;110.63;72.47;;;128.60;2252.80;;;;;;5070802;28;20435;-61
2023/12/31 06:49:52;;;;;;;125.78;78.93;;;128.70;2252.80;;;;;;5070922;28;20033;-61
2023/12/31 06:52:18;;;;;;;61.72;46.20;;;128.70;2252.80;;;;;;5070704;28;20027;-62
2023/12/31 06:54:44;;;;;;;19.52;14.40;;;128.60;2252.80;;;;;;5070695;28;20028;-61
2023/12/31 06:57:10;;;;;;;24.27;15.68;;;128.60;2252.80;;;;;;5070659;28;20024;-61
2023/12/31 06:59:35;;;;;;;21.75;16.80;;;128.50;2252.80;;;;;;5070972;28;20032;-61
2023/12/31 07:02:02;;;;;;;22.58;13.30;;;128.60;2252.80;;;;;;5074598;28;20405;-62
2023/12/31 07:04:27;;;;;;;21.60;12.63;;;128.70;2252.80;;;;;;5070429;28;20074;-61
2023/12/31 07:06:53;;;;;;;15.68;11.45;;;128.80;2252.80;;;;;;5070569;28;20028;-61
2023/12/31 07:09:19;;;;;;;15.38;11.00;;;128.80;2252.80;;;;;;5070551;28;20493;-61
2023/12/31 07:11:45;;;;;;;15.82;11.10;;;128.90;2252.80;;;;;;5070045;28;20100;-61
2023/12/31 07:14:10;;;;;;;19.35;14.35;;;128.90;2252.80;;;;;;5070479;28;20032;-61
2023/12/31 07:16:37;;;;;;;18.77;12.52;;;128.90;2252.80;;;;;;5070279;28;20474;-61
2023/12/31 07:19:02;;;;;;;19.77;13.27;;;153.60;2252.80;;;;;;5070551;28;20397;-61
2023/12/31 07:21:28;;;;;;;27.27;17.02;;;128.90;2252.80;;;;;;5083339;28;20039;-61
2023/12/31 07:23:54;;;;;;;60.53;38.80;;;153.70;2252.80;;;;;;5069649;28;20470;-60
2023/12/31 07:26:25;;;;;;;67.53;41.42;;;153.80;2252.80;;;;;;5070722;28;20372;-61
2023/12/31 07:28:51;;;;;;;29.23;19.52;;;153.80;2252.80;;;;;;5069766;28;20387;-68
2023/12/31 07:31:16;;;;;;;34.85;20.33;;;153.70;2252.80;;;;;;5080712;28;20458;-61
2023/12/31 07:33:43;;;;;;;29.48;20.77;;;153.80;2252.80;;;;;;5070095;28;20056;-61
2023/12/31 07:36:09;;;;;;;26.83;17.05;;;153.80;2252.80;;;;;;5069733;28;20034;-61
2023/12/31 07:38:35;;;;;;;22.15;15.60;;;153.90;2252.80;;;;;;5069400;28;20064;-62
2023/12/31 07:41:01;;;;;;;23.85;15.07;;;153.90;2252.80;;;;;;5070183;28;20513;-67
2023/12/31 07:43:26;;;;;;;18.67;11.98;;;154.00;2252.80;;;;;;5082363;28;20382;-62
2023/12/31 07:45:52;;;;;;;51.35;37.50;;;154.00;2252.80;;;;;;5070247;28;20027;-69
2023/12/31 07:48:19;;;;;;;20.92;12.68;;;154.00;2252.80;;;;;;5070052;28;20462;-68
2023/12/31 07:50:45;;;;;;;28.30;20.30;;;154.10;2252.80;;;;;;5069561;28;20024;-61
2023/12/31 07:53:10;;;;;;;19.98;14.18;;;154.20;2252.80;;;;;;5069863;28;20062;-61
2023/12/31 07:55:36;;;;;;;23.17;17.23;;;154.30;2252.80;;;;;;5069687;28;20036;-62
2023/12/31 07:58:02;;;;;;;28.58;19.02;;;154.40;2252.80;;;;;;5051938;28;20032;-63
2023/12/31 08:00:28;;;;;;;46.42;31.73;;;154.50;2252.80;;;;;;5068955;28;20032;-62
2023/12/31 08:02:54;;;;;;;31.63;21.35;;;154.50;2252.80;;;;;;5080635;28;20039;-63
2023/12/31 08:05:19;;;;;;;24.58;16.75;;;179.20;2252.80;;;;;;5077512;28;20025;-62
2023/12/31 08:07:45;;;;;;;27.17;19.58;;;179.20;2252.80;;;;;;5069425;28;20089;-62
2023/12/31 08:10:11;;;;;;;31.05;21.42;;;179.20;2252.80;;;;;;5069586;28;20028;-62
2023/12/31 08:12:37;;;;;;;29.95;19.35;;;179.20;2252.80;;;;;;5069307;28;20074;-61
2023/12/31 08:15:04;;;;;;;82.28;57.35;;;179.40;2252.80;;;;;;5069637;28;20025;-62
2023/12/31 08:17:30;;;;;;;27.58;17.42;;;179.50;2252.80;;;;;;5069458;28;20089;-61
2023/12/31 08:19:55;;;;;;;31.13;20.33;;;179.60;2252.80;;;;;;5069299;28;20064;-62
2023/12/31 08:22:21;;;;;;;77.80;52.47;;;179.70;2252.80;;;;;;5069164;28;20047;-61
2023/12/31 08:24:47;;;;;;;68.95;49.20;;;179.80;2252.80;;;;;;5069347;28;20017;-62
2023/12/31 08:27:12;;;;;;;273.60;182.48;;;180.00;2252.80;;;;;;5069076;28;20056;-61
2023/12/31 08:29:41;;;;;;;376.65;259.73;;;205.50;2252.80;;;;;;5073287;28;20459;-60
2023/12/31 08:32:07;;;;;;;314.02;223.60;;;230.40;2252.80;;;;;;5062766;28;20048;-60
2023/12/31 08:34:33;;;;;;;275.65;197.75;;;230.50;2252.80;;;;;;5088622;28;20064;-68
2023/12/31 08:36:59;;;;;;;246.68;179.10;;;230.50;2252.80;;;;;;5081472;28;20040;-67
2023/12/31 08:39:24;;;;;;;213.40;151.38;;;205.70;2252.80;;;;;;5082393;28;20063;-62
2023/12/31 08:41:50;;;;;;;193.63;147.00;;;205.70;2252.80;;;;;;5081313;28;20042;-65
2023/12/31 08:44:16;;;;;;;144.52;106.03;;;230.50;2252.80;;;;;;5081824;28;20516;-62
2023/12/31 08:46:41;;;;;;;112.43;81.97;;;231.10;2252.80;;;;;;5068938;28;20033;-62
2023/12/31 08:49:07;;;;;;;306.88;226.25;;;282.00;2278.40;;;;;;5068803;28;20021;-62
2023/12/31 08:51:33;;;;;;;87.43;72.65;;;332.80;2329.60;;;;;;5068856;28;20035;-64
2023/12/31 08:53:59;;;;;;;124.60;103.03;;;333.40;2329.60;;;;;;5068522;28;20024;-62
2023/12/31 08:56:24;;;;;;;156.15;131.20;;;358.40;2329.60;;;;;;5068922;28;20036;-63
2023/12/31 08:58:50;;;;;;;141.48;121.30;;;358.60;2329.60;;;;;;5068526;28;20506;-63
2023/12/31 09:01:18;;;;;;;134.35;117.90;;;359.00;2329.60;;;;;;5069465;28;20043;-66
2023/12/31 09:03:44;;;;;;;176.80;152.05;;;384.20;2278.40;;;;;;5072710;28;20059;-68
2023/12/31 09:06:12;;;;;;;319.38;254.98;;;409.70;2201.60;;;;;;5072693;28;20056;-63
2023/12/31 09:08:38;;;;;;;292.92;235.95;;;409.60;2201.60;;;;;;5072334;28;20033;-64
2023/12/31 09:11:04;;;;;;;223.75;182.98;;;409.70;2176.00;;;;;;5072697;28;20081;-65
2023/12/31 09:13:30;;;;;;;200.23;175.50;;;409.90;2150.40;;;;;;5072702;28;20032;-63
2023/12/31 09:15:56;;;;;;;181.50;148.68;;;410.00;2124.80;;;;;;5072457;28;20027;-63
2023/12/31 09:18:23;;;;;;;637.65;426.60;;;410.20;2124.80;;;;;;5072402;28;20143;-64
2023/12/31 09:20:49;;;;;;;378.67;234.45;;;410.10;2099.20;;;;;;5072051;28;20113;-63
2023/12/31 09:23:17;;;;;;;295.33;184.43;;;410.20;2099.20;;;;;;5072215;28;20096;-68
2023/12/31 09:25:44;;;;;;;628.67;411.40;;;410.20;2099.20;;;;;;5072361;28;20025;-67
2023/12/31 09:28:10;;;;;;;325.60;202.32;;;410.20;2099.20;;;;;;5072136;28;20364;-62
2023/12/31 09:30:36;;;;;;;159.93;106.68;;;410.20;2099.20;;;;;;5071890;28;20039;-62
2023/12/31 09:33:01;;;;;;;101.70;89.15;;;409.60;2150.40;;;;;;5072351;28;20375;-69
2023/12/31 09:35:27;;;;;;;170.18;152.20;;;384.30;2150.40;;;;;;5071937;28;20465;-68
2023/12/31 09:37:53;;;;;;;88.45;69.25;;;358.80;2252.80;;;;;;5071989;28;20024;-62
2023/12/31 09:40:19;;;;;;;111.13;82.55;;;333.50;2329.60;;;;;;5052092;28;20060;-65
2023/12/31 09:42:49;;;;;;;147.48;96.38;;;333.10;2329.60;;;;;;5051887;28;20029;-63
2023/12/31 09:45:28;;;;;;;112.15;83.07;;;332.80;2329.60;;;;;;5051709;28;20464;-67
2023/12/31 09:47:57;;;;;;;140.43;107.40;;;307.90;2304.00;;;;;;5052052;28;20059;-62
2023/12/31 09:50:23;;;;;;;150.48;111.63;;;307.60;2304.00;;;;;;5051581;28;20029;-64
2023/12/31 09:52:50;;;;;;;135.20;107.22;;;307.40;2304.00;;;;;;5051593;28;20506;-62
2023/12/31 09:55:18;;;;;;;95.50;73.47;;;307.30;2304.00;;;;;;5051438;28;20698;-67
2023/12/31 09:57:46;;;;;;;107.60;81.05;;;307.30;2304.00;;;;;;5051718;28;20105;-63
2023/12/31 10:00:13;;;;;;;101.40;74.50;;;307.30;2304.00;;;;;;5051630;28;20024;-63
2023/12/31 10:02:38;;;;;;;92.22;67.85;;;307.20;2304.00;;;;;;5051482;28;20479;-62
2023/12/31 10:05:05;;;;;;;82.43;57.03;;;307.30;2304.00;;;;;;5051334;28;20056;-62
2023/12/31 10:07:31;;;;;;;80.75;60.97;;;307.30;2304.00;;;;;;5051322;28;20040;-62
2023/12/31 10:10:00;;;;;;;87.60;60.35;;;307.20;2304.00;;;;;;5051329;28;20029;-62
2023/12/31 10:12:27;;;;;;;103.00;67.60;;;307.20;2304.00;;;;;;5050425;28;20029;-62
2023/12/31 10:14:54;;;;;;;87.45;64.47;;;307.30;2304.00;;;;;;5051317;28;20021;-62
2023/12/31 10:17:20;;;;;;;105.78;74.28;;;307.30;2304.00;;;;;;5051321;28;20229;-62
2023/12/31 10:19:47;;;;;;;79.05;53.10;;;307.20;2304.00;;;;;;5051162;28;20104;-63
2023/12/31 10:22:15;;;;;;;52.53;37.35;;;307.30;2304.00;;;;;;5051377;28;20065;-62
2023/12/31 10:24:41;;;;;;;53.83;36.03;;;307.30;2304.00;;;;;;5051033;28;20017;-63
2023/12/31 10:27:08;;;;;;;49.55;35.10;;;307.30;2304.00;;;;;;5050684;28;20033;-62
2023/12/31 10:29:35;;;;;;;47.38;34.45;;;307.40;2304.00;;;;;;5051085;28;20025;-63
2023/12/31 10:32:05;;;;;;;64.72;48.28;;;307.40;2304.00;;;;;;5051380;28;20060;-62
2023/12/31 10:34:32;;;;;;;66.65;47.45;;;307.40;2304.00;;;;;;5051055;28;20025;-63
2023/12/31 10:37:03;;;;;;;79.60;56.15;;;307.40;2304.00;;;;;;5050940;28;20029;-62
2023/12/31 10:39:31;;;;;;;68.88;50.83;;;307.40;2304.00;;;;;;5063811;28;20049;-62
2023/12/31 10:41:58;;;;;;;78.10;57.33;;;307.60;2304.00;;;;;;5070566;28;20402;-62
2023/12/31 10:44:25;;;;;;;66.18;49.88;;;307.70;2304.00;;;;;;5070848;28;20104;-62
2023/12/31 10:47:00;;;;;;;101.10;73.45;;;307.60;2304.00;;;;;;5070578;28;20040;-63
2023/12/31 10:49:29;;;;;;;92.65;67.97;;;307.60;2304.00;;;;;;5070422;28;20023;-63
2023/12/31 10:51:56;;;;;;;91.18;67.03;;;307.70;2304.00;;;;;;5070521;28;20403;-62
2023/12/31 10:54:36;;;;;;;83.25;58.70;;;307.80;2304.00;;;;;;5070819;28;20383;-63
2023/12/31 10:57:05;;;;;;;82.65;56.40;;;307.90;2304.00;;;;;;5070548;28;20029;-62
2023/12/31 10:59:31;;;;;;;87.57;55.88;;;307.90;2304.00;;;;;;5070939;28;20099;-62
2023/12/31 11:01:57;;;;;;;92.38;63.97;;;308.00;2304.00;;;;;;5070376;28;20089;-62
2023/12/31 11:04:26;;;;;;;93.38;61.38;;;307.90;2304.00;;;;;;5070502;28;20100;-61
2023/12/31 11:06:54;;;;;;;77.03;55.13;;;308.10;2304.00;;;;;;5070242;28;20466;-62
2023/12/31 11:09:21;;;;;;;70.30;50.15;;;332.90;2329.60;;;;;;5070353;28;20439;-63
2023/12/31 11:11:49;;;;;;;59.92;43.88;;;332.80;2329.60;;;;;;5070002;28;20417;-62
2023/12/31 11:14:16;;;;;;;91.55;63.03;;;332.90;2329.60;;;;;;5070158;28;20024;-67
2023/12/31 11:17:03;;;;;;;92.75;63.17;;;333.00;2329.60;;;;;;5070198;28;20082;-62
2023/12/31 11:19:56;;;;;;;75.88;53.00;;;333.10;2329.60;;;;;;5070473;28;20024;-62
2023/12/31 11:22:59;;;;;;;57.15;45.03;;;333.20;2329.60;;;;;;5070305;28;20439;-61
2023/12/31 11:25:26;;;;;;;68.60;52.42;;;333.20;2329.60;;;;;;5061143;28;20056;-63
2023/12/31 11:27:54;;;;;;;132.55;81.97;;;333.20;2329.60;;;;;;5069976;28;20040;-62
2023/12/31 11:30:48;;;;;;;68.25;47.38;;;333.20;2329.60;;;;;;5069933;28;20029;-61
2023/12/31 11:33:25;;;;;;;69.43;47.22;;;333.20;2329.60;;;;;;5058084;28;20021;-63
2023/12/31 11:35:52;;;;;;;93.93;61.60;;;333.20;2329.60;;;;;;5069709;28;20028;-62
2023/12/31 11:38:21;;;;;;;64.28;46.47;;;333.40;2329.60;;;;;;5059474;28;20041;-62
2023/12/31 11:40:48;;;;;;;54.58;42.30;;;333.40;2329.60;;;;;;5057039;28;20035;-63
2023/12/31 11:43:19;;;;;;;57.67;41.05;;;333.40;2329.60;;;;;;5089337;28;20402;-63
2023/12/31 11:45:47;;;;;;;70.28;50.38;;;333.30;2329.60;;;;;;5062326;28;20027;-61
2023/12/31 11:48:19;;;;;;;123.43;82.38;;;333.40;2329.60;;;;;;5089041;28;20024;-63
2023/12/31 11:50:58;;;;;;;99.03;66.07;;;333.50;2329.60;;;;;;5078961;28;20013;-62
2023/12/31 11:53:27;;;;;;;64.28;48.05;;;333.60;2329.60;;;;;;5062867;28;20028;-61